Observations for BRISTOL LULSGATE, United Kingdom (EGGD)

EGGD 260450Z AUTO 24002KT 0050 R27/0250 FG VV/// 16/16 Q1019
EGGD 260420Z AUTO 26004KT 0050 R27/0250 FG VV/// 16/16 Q1019
EGGD 260350Z AUTO 24005KT 0050 R27/0250 FG VV/// 16/16 Q1019
EGGD 260320Z AUTO 24004KT 0050 R27/0300 FG VV/// 16/16 Q1019
EGGD 260250Z AUTO 25005KT 0050 R27/0250 FG VV/// 16/16 Q1019
EGGD 260220Z AUTO 26004KT 0050 R27/0275 FG VV/// 16/16 Q1019
EGGD 260150Z AUTO 24005KT 0050 R27/0300 FG VV/// 16/16 Q1019
EGGD 260120Z AUTO 25006KT 0100 R27/0325 FG VV/// 16/16 Q1019
EGGD 260050Z AUTO 24006KT 0100 R27/0450 FG VV/// 16/16 Q1019
EGGD 260020Z AUTO 24005KT 0150 R27/0450 FG VV/// 16/16 Q1019
EGGD 252350Z AUTO 25005KT 0400 R27/1100 FG VV/// 16/16 Q1019
EGGD 252320Z AUTO 24005KT 0600 R27/P1500 FG OVC001 16/16 Q1019  
EGGD 252250Z AUTO 25006KT 1200 R27/P1500 BR OVC001 16/16 Q1020  
EGGD 252220Z AUTO 25006KT 2100 BR BKN001 16/15 Q1020
EGGD 252150Z AUTO 24005KT 4100 BR OVC001 16/16 Q1020
EGGD 252120Z AUTO 25006KT 4600 BR BKN003 16/15 Q1020
EGGD 252050Z AUTO 24007KT 6000 NCD 16/15 Q1020  
EGGD 252020Z AUTO 25005KT 9000 NCD 16/15 Q1020  
EGGD 251950Z AUTO 25005KT 9999 NCD 16/15 Q1019  
EGGD 251920Z AUTO 24009KT 9999 NCD 17/15 Q1019  
EGGD 251850Z AUTO 25007KT 9999 NCD 18/15 Q1019  
EGGD 251820Z AUTO 25008KT 9999 NCD 19/15 Q1019  
EGGD 251750Z AUTO 24007KT 9999 NCD 20/16 Q1019  
EGGD 251720Z AUTO 25009KT 9999 NCD 20/16 Q1019  
EGGD 251650Z AUTO 25009KT 9999 NCD 22/17 Q1018  
EGGD 251620Z AUTO 27007KT 9999 NCD 23/16 Q1018  
EGGD 251550Z AUTO 27009KT 9999 NCD 23/17 Q1018  
EGGD 251520Z AUTO 27008KT 9999 NCD 24/17 Q1018  
EGGD 251450Z AUTO 26008KT 220V290 9999 NCD 24/17 Q1018  
EGGD 251420Z AUTO 26009KT 9999 NCD 23/16 Q1019  
EGGD 251350Z AUTO 25007KT 9999 NCD 23/16 Q1019  
EGGD 251320Z AUTO 24008KT 9999 NCD 23/17 Q1019  
EGGD 251250Z AUTO 26007KT 220V280 9999 NCD 23/17 Q1019  
EGGD 251220Z AUTO 23006KT 190V300 9999 NCD 23/17 Q1018  
EGGD 251150Z AUTO 23005KT 170V270 9999 NCD 23/17 Q1018  
EGGD 251120Z AUTO 23005KT 180V280 9999 NCD 22/17 Q1018  
EGGD 251050Z AUTO 19004KT 120V240 9999 NCD 23/16 Q1018  
EGGD 251020Z AUTO VRB03KT 9999 NCD 22/16 Q1018  
EGGD 250950Z AUTO 25004KT 220V290 9999 NCD 21/15 Q1018  
EGGD 250920Z AUTO 24004KT 180V280 9999 NCD 21/15 Q1018  
EGGD 250850Z AUTO 22005KT 9999 NCD 20/14 Q1018  
EGGD 250820Z AUTO 23004KT 9999 NCD 20/14 Q1018  
EGGD 250750Z AUTO 19004KT 9999 NCD 19/12 Q1017  
EGGD 250720Z AUTO VRB03KT 9999 NCD 20/13 Q1017  
EGGD 250650Z AUTO VRB01KT 9999 NCD 19/13 Q1017  
EGGD 250620Z AUTO VRB03KT 9999 NCD 17/12 Q1017  
EGGD 250550Z AUTO 15004KT 120V180 9999 NCD 17/11 Q1017  
EGGD 250520Z AUTO 12004KT 100V170 9999 NCD 17/11 Q1016  
EGGD 250450Z AUTO 10005KT 9999 NCD 16/11 Q1016  
EGGD 250420Z AUTO 13005KT 9999 NCD 17/11 Q1016